createdAt,value
2023-03-02T00:00:14.675Z,18.52
2023-03-02T00:02:42.502Z,18.85
2023-03-02T00:05:14.809Z,21.70
2023-03-02T00:07:42.552Z,15.00
2023-03-02T00:10:11.357Z,20.00
2023-03-02T00:12:39.049Z,17.08
2023-03-02T00:15:09.612Z,19.00
2023-03-02T00:17:37.259Z,15.23
2023-03-02T00:20:09.873Z,17.95
2023-03-02T00:22:37.631Z,20.55
2023-03-02T00:25:06.145Z,16.60
2023-03-02T00:27:33.820Z,19.58
2023-03-02T00:30:01.635Z,17.13
2023-03-02T00:32:30.637Z,18.60
2023-03-02T00:34:58.810Z,17.67
2023-03-02T00:37:26.730Z,16.38
2023-03-02T00:39:54.449Z,16.15
2023-03-02T00:42:22.874Z,15.50
2023-03-02T00:44:50.582Z,14.20
2023-03-02T00:47:18.240Z,15.63
2023-03-02T00:49:49.009Z,19.33
2023-03-02T00:52:17.551Z,19.38
2023-03-02T00:54:45.183Z,16.08
2023-03-02T00:57:12.853Z,14.80
2023-03-02T00:59:40.767Z,17.60
2023-03-02T01:02:08.608Z,14.43
2023-03-02T01:04:38.804Z,16.13
2023-03-02T01:07:10.935Z,14.45
2023-03-02T01:09:39.586Z,11.27
2023-03-02T01:12:09.319Z,16.33
2023-03-02T01:14:37.048Z,12.13
2023-03-02T01:17:05.599Z,10.43
2023-03-02T01:19:33.421Z,13.95
2023-03-02T01:22:01.253Z,15.10
2023-03-02T01:24:30.315Z,12.77
2023-03-02T01:26:57.989Z,13.15
2023-03-02T01:29:25.763Z,12.35
2023-03-02T01:31:53.650Z,14.85
2023-03-02T01:34:21.452Z,11.95
2023-03-02T01:36:49.165Z,12.57
2023-03-02T01:39:16.895Z,13.20
2023-03-02T01:48:18.944Z,12.32
2023-03-02T01:50:46.993Z,13.30
2023-03-02T01:53:16.812Z,13.00
2023-03-02T01:55:46.776Z,15.68
2023-03-02T01:58:16.666Z,14.93
2023-03-02T02:00:46.520Z,15.15
2023-03-02T02:03:21.002Z,15.40
2023-03-02T02:05:57.732Z,13.75
2023-03-02T02:08:27.032Z,14.73
2023-03-02T02:10:56.256Z,12.93
2023-03-02T02:13:23.959Z,14.35
2023-03-02T02:15:53.271Z,14.35
2023-03-02T02:18:21.018Z,15.00
2023-03-02T02:20:50.468Z,13.90
2023-03-02T02:23:40.574Z,14.85
2023-03-02T02:26:25.660Z,14.20
2023-03-02T02:28:58.769Z,16.42
2023-03-02T02:31:34.600Z,15.43
2023-03-02T02:34:07.774Z,20.45
2023-03-02T02:36:41.775Z,17.77
2023-03-02T02:39:17.010Z,16.75
2023-03-02T02:41:48.695Z,18.58
2023-03-02T02:44:18.418Z,18.40
2023-03-02T02:46:46.849Z,19.00
2023-03-02T02:49:30.234Z,20.35
2023-03-02T02:51:58.358Z,17.98
2023-03-02T02:54:26.082Z,18.48
2023-03-02T02:56:55.460Z,14.70
2023-03-02T02:59:26.794Z,16.75
2023-03-02T03:01:54.559Z,20.23
2023-03-02T03:04:26.460Z,17.27
2023-03-02T03:06:57.090Z,19.02
2023-03-02T03:09:25.552Z,23.85
2023-03-02T03:11:56.637Z,15.30
2023-03-02T03:14:30.216Z,18.20
2023-03-02T03:16:57.944Z,19.35
2023-03-02T03:19:27.706Z,18.90
2023-03-02T03:21:58.396Z,19.83
2023-03-02T03:24:26.766Z,18.90
2023-03-02T03:26:56.883Z,22.70
2023-03-02T03:29:26.395Z,22.83
2023-03-02T03:31:56.049Z,23.00
2023-03-02T03:34:24.717Z,21.70
2023-03-02T03:36:52.539Z,19.35
2023-03-02T03:39:21.504Z,22.15
2023-03-02T03:41:49.118Z,21.08
2023-03-02T03:44:18.111Z,20.33
2023-03-02T03:46:45.785Z,22.67
2023-03-02T03:49:13.408Z,20.40
2023-03-02T03:51:41.204Z,21.52
2023-03-02T03:54:10.262Z,20.30
2023-03-02T03:56:40.031Z,20.23
2023-03-02T03:59:10.221Z,20.65
2023-03-02T04:01:41.588Z,20.85
2023-03-02T04:04:12.361Z,29.42
2023-03-02T04:06:40.068Z,23.35
2023-03-02T04:09:08.520Z,29.80
2023-03-02T04:11:38.560Z,21.02
2023-03-02T04:14:07.505Z,24.13
2023-03-02T04:16:35.718Z,24.00
2023-03-02T04:19:09.360Z,27.58
2023-03-02T04:21:37.994Z,28.92
2023-03-02T04:24:06.149Z,25.77
2023-03-02T04:26:34.841Z,26.42
2023-03-02T04:29:02.679Z,25.00
2023-03-02T04:31:31.163Z,27.10
2023-03-02T04:33:58.958Z,28.73
2023-03-02T04:36:28.151Z,25.90
2023-03-02T04:38:55.827Z,24.25
2023-03-02T04:41:23.836Z,26.48
2023-03-02T04:43:52.545Z,25.52
2023-03-02T04:46:23.317Z,27.33
2023-03-02T04:48:51.081Z,28.45
2023-03-02T04:51:23.983Z,32.58
2023-03-02T04:53:54.306Z,30.83
2023-03-02T04:56:22.789Z,27.55
2023-03-02T04:58:50.571Z,32.45
2023-03-02T05:01:19.921Z,31.95
2023-03-02T05:03:48.351Z,36.55
2023-03-02T05:06:16.593Z,31.73
2023-03-02T05:08:44.661Z,32.85
2023-03-02T05:11:22.388Z,32.78
2023-03-02T05:13:50.452Z,31.05
2023-03-02T05:16:18.718Z,37.42
2023-03-02T05:18:46.851Z,32.58
2023-03-02T05:21:15.305Z,31.05
2023-03-02T05:23:44.042Z,31.90
2023-03-02T05:26:13.214Z,29.35
2023-03-02T05:28:41.086Z,30.10
2023-03-02T05:31:08.774Z,34.58
2023-03-02T05:33:36.460Z,33.33
2023-03-02T05:36:04.288Z,34.38
2023-03-02T05:38:32.505Z,29.10
2023-03-02T05:41:00.155Z,28.55
2023-03-02T05:43:29.114Z,32.38
2023-03-02T05:46:00.355Z,32.70
2023-03-02T05:48:28.078Z,29.83
2023-03-02T05:50:55.780Z,34.97
2023-03-02T05:53:23.716Z,33.65
2023-03-02T05:55:51.959Z,28.33
2023-03-02T05:58:20.750Z,31.90
2023-03-02T06:00:50.205Z,28.38
2023-03-02T06:03:18.433Z,30.97
2023-03-02T06:05:50.622Z,36.22
2023-03-02T06:08:18.556Z,36.83
2023-03-02T06:10:46.359Z,37.95
2023-03-02T06:13:14.395Z,41.03
2023-03-02T06:15:43.050Z,36.03
2023-03-02T06:18:12.519Z,38.00
2023-03-02T06:20:40.521Z,39.77
2023-03-02T06:23:08.188Z,41.22
2023-03-02T06:25:36.951Z,40.70
2023-03-02T06:28:04.798Z,38.33
2023-03-02T06:30:32.518Z,39.47
2023-03-02T06:33:00.204Z,41.83
2023-03-02T06:35:29.894Z,43.13
2023-03-02T06:37:57.645Z,37.58
2023-03-02T06:40:25.315Z,42.17
2023-03-02T06:42:53.015Z,39.03
2023-03-02T06:45:20.777Z,44.72
2023-03-02T06:47:48.439Z,43.75
2023-03-02T06:50:16.102Z,43.50
2023-03-02T06:52:45.122Z,93.65
2023-03-02T06:55:12.778Z,53.42
2023-03-02T06:57:40.816Z,40.15
2023-03-02T07:00:14.142Z,39.75
2023-03-02T07:02:42.041Z,41.63
2023-03-02T07:05:10.040Z,39.45
2023-03-02T07:07:38.019Z,39.47
2023-03-02T07:10:08.793Z,41.92
2023-03-02T07:12:36.461Z,40.92
2023-03-02T07:15:05.298Z,39.75
2023-03-02T07:17:34.880Z,38.47
2023-03-02T07:20:02.711Z,37.38
2023-03-02T07:22:30.328Z,38.55
2023-03-02T07:24:58.049Z,37.63
2023-03-02T07:27:27.090Z,38.60
2023-03-02T07:29:54.919Z,37.80
2023-03-02T07:32:22.599Z,37.28
2023-03-02T07:34:50.322Z,37.20
2023-03-02T07:37:17.952Z,43.00
2023-03-02T07:39:45.585Z,40.05
2023-03-02T07:42:13.642Z,38.97
2023-03-02T07:44:42.958Z,38.33
2023-03-02T07:47:10.696Z,35.65
2023-03-02T07:49:38.456Z,37.60
2023-03-02T07:52:06.506Z,39.17
2023-03-02T07:54:34.225Z,37.53
2023-03-02T07:57:01.904Z,40.33
2023-03-02T07:59:30.133Z,39.28
2023-03-02T08:01:59.805Z,41.30
2023-03-02T08:04:27.640Z,69.13
2023-03-02T08:06:55.249Z,39.17
2023-03-02T08:09:22.927Z,47.70
2023-03-02T08:11:50.645Z,42.22
2023-03-02T08:14:18.319Z,42.70
2023-03-02T08:16:45.969Z,43.55
2023-03-02T08:19:14.982Z,42.80
2023-03-02T08:22:08.318Z,41.30
2023-03-02T08:24:36.403Z,42.50
2023-03-02T08:27:06.850Z,44.97
2023-03-02T08:32:03.177Z,45.05
2023-03-02T08:34:32.313Z,40.05
2023-03-02T08:37:00.092Z,41.78
2023-03-02T08:39:31.260Z,36.72
2023-03-02T08:41:59.136Z,38.70
2023-03-02T08:44:26.821Z,39.72
2023-03-02T08:46:55.020Z,41.90
2023-03-02T08:49:22.652Z,39.08
2023-03-02T08:51:53.657Z,48.63
2023-03-02T08:54:22.246Z,43.97
2023-03-02T08:56:50.187Z,38.97
2023-03-02T08:59:18.304Z,37.60
2023-03-02T09:01:45.987Z,36.28
2023-03-02T09:04:13.808Z,35.72
2023-03-02T09:06:44.033Z,40.75
2023-03-02T09:09:14.805Z,35.17
2023-03-02T09:11:43.540Z,35.28
2023-03-02T09:14:11.365Z,32.38
2023-03-02T09:16:39.163Z,35.25
2023-03-02T09:19:06.897Z,34.30
2023-03-02T09:21:34.972Z,31.23
2023-03-02T09:24:02.959Z,32.17
2023-03-02T09:26:32.363Z,31.95
2023-03-02T09:29:00.652Z,36.45
2023-03-02T09:31:30.241Z,29.75
2023-03-02T09:33:58.215Z,27.88
2023-03-02T09:36:27.605Z,31.73
2023-03-02T09:38:55.867Z,30.98
2023-03-02T09:41:59.437Z,27.80
2023-03-02T09:44:43.688Z,26.25
2023-03-02T09:47:34.610Z,26.05
2023-03-02T09:50:11.395Z,31.83
2023-03-02T09:52:48.743Z,28.80
2023-03-02T09:55:20.222Z,25.08
2023-03-02T09:57:48.305Z,25.02
2023-03-02T10:00:30.151Z,22.70
2023-03-02T10:03:14.729Z,25.98
2023-03-02T10:05:46.472Z,20.95
2023-03-02T10:10:46.826Z,21.23
2023-03-02T10:13:22.665Z,20.02
2023-03-02T10:16:01.866Z,18.05
2023-03-02T10:18:35.110Z,19.98
2023-03-02T10:21:06.342Z,20.48
2023-03-02T10:23:47.316Z,17.23
2023-03-02T10:26:27.126Z,20.20
2023-03-02T10:29:00.778Z,17.80
2023-03-02T10:31:31.294Z,20.10
2023-03-02T10:33:59.709Z,21.27
2023-03-02T10:36:29.061Z,18.70
2023-03-02T10:38:58.424Z,16.10
2023-03-02T10:41:30.058Z,17.75
2023-03-02T10:44:02.315Z,18.63
2023-03-02T10:46:42.199Z,39.85
2023-03-02T10:49:26.094Z,52.03
2023-03-02T10:51:59.140Z,24.92
2023-03-02T10:54:28.710Z,19.92
2023-03-02T10:56:59.764Z,21.93
2023-03-02T10:59:43.209Z,19.83
2023-03-02T11:02:22.394Z,20.85
2023-03-02T11:04:57.237Z,19.77
2023-03-02T11:07:26.924Z,18.48
2023-03-02T11:10:02.724Z,19.38
2023-03-02T11:12:31.624Z,19.40
2023-03-02T11:15:15.829Z,19.40
2023-03-02T11:17:47.092Z,20.98
2023-03-02T11:20:18.550Z,19.25
2023-03-02T11:22:53.136Z,22.15
2023-03-02T11:25:26.324Z,65.68
2023-03-02T11:28:00.806Z,54.17
2023-03-02T11:30:29.747Z,20.77
2023-03-02T11:33:05.774Z,18.75
2023-03-02T11:35:37.462Z,18.65
2023-03-02T11:38:15.485Z,19.92
2023-03-02T11:40:47.848Z,18.15
2023-03-02T11:43:15.554Z,17.10
2023-03-02T11:45:46.455Z,19.58
2023-03-02T11:48:23.326Z,18.63
2023-03-02T11:50:58.341Z,19.67
2023-03-02T11:53:31.637Z,15.88
2023-03-02T11:55:59.527Z,17.73
2023-03-02T11:58:30.760Z,19.55
2023-03-02T12:00:58.792Z,17.27
2023-03-02T12:03:40.666Z,15.88
2023-03-02T12:06:29.837Z,16.92
2023-03-02T12:09:11.622Z,17.42
2023-03-02T12:11:41.681Z,16.00
2023-03-02T12:14:29.439Z,22.05
2023-03-02T12:17:23.175Z,18.90
2023-03-02T12:19:54.553Z,22.83
2023-03-02T12:22:30.804Z,17.38
2023-03-02T12:25:05.353Z,19.10
2023-03-02T12:27:38.673Z,17.83
2023-03-02T12:30:24.296Z,23.65
2023-03-02T12:33:06.389Z,17.85
2023-03-02T12:35:36.068Z,18.40
2023-03-02T12:38:08.230Z,19.23
2023-03-02T12:40:48.430Z,21.13
2023-03-02T12:43:31.837Z,24.42
2023-03-02T12:46:31.940Z,21.02
2023-03-02T12:49:36.250Z,21.55
2023-03-02T12:52:23.675Z,20.75
2023-03-02T12:55:04.190Z,23.48
2023-03-02T12:57:32.494Z,27.60
2023-03-02T13:00:02.743Z,26.75
2023-03-02T13:02:32.469Z,29.73
2023-03-02T13:05:02.710Z,40.28
2023-03-02T13:07:38.946Z,38.45
2023-03-02T13:10:17.674Z,36.38
2023-03-02T13:12:47.195Z,45.63
2023-03-02T13:15:17.785Z,47.90
2023-03-02T13:17:53.321Z,56.05
2023-03-02T13:20:22.708Z,51.85
2023-03-02T13:22:51.920Z,54.88
2023-03-02T13:25:26.652Z,49.75
2023-03-02T13:27:56.495Z,61.28
2023-03-02T13:30:26.716Z,59.80
2023-03-02T13:33:00.829Z,63.15
2023-03-02T13:35:31.059Z,68.03
2023-03-02T13:38:04.404Z,60.65
2023-03-02T13:40:38.461Z,66.53
2023-03-02T13:43:21.926Z,77.45
2023-03-02T13:45:55.022Z,68.57
2023-03-02T13:48:23.388Z,84.72
2023-03-02T13:50:54.705Z,82.07
2023-03-02T13:53:24.352Z,85.47
2023-03-02T13:55:54.024Z,85.03
2023-03-02T13:58:23.852Z,82.67
2023-03-02T14:00:52.503Z,71.72
2023-03-02T14:03:24.461Z,68.05
2023-03-02T14:05:52.837Z,68.65
2023-03-02T14:08:20.551Z,70.57
2023-03-02T14:10:52.710Z,77.15
2023-03-02T14:13:24.910Z,86.93
2023-03-02T14:15:54.500Z,91.70
2023-03-02T14:18:33.780Z,82.67
2023-03-02T14:21:01.672Z,92.40
2023-03-02T14:23:29.505Z,96.45
2023-03-02T14:25:59.009Z,99.70
2023-03-02T14:28:31.183Z,91.82
2023-03-02T14:30:59.779Z,91.78
2023-03-02T14:33:27.468Z,90.55
2023-03-02T14:35:57.594Z,86.75
2023-03-02T14:38:28.226Z,81.90
2023-03-02T14:40:56.402Z,89.13
2023-03-02T14:43:25.561Z,86.85
2023-03-02T14:45:53.328Z,99.00
2023-03-02T14:48:20.987Z,164.57
2023-03-02T14:50:51.084Z,96.55
2023-03-02T14:53:21.585Z,101.20
2023-03-02T14:55:49.227Z,91.65
2023-03-02T14:58:19.944Z,90.50
2023-03-02T15:00:49.408Z,90.70
2023-03-02T15:03:19.267Z,88.97
2023-03-02T15:06:00.289Z,97.10
2023-03-02T15:08:29.032Z,79.97
2023-03-02T15:10:56.768Z,75.65
2023-03-02T15:13:24.440Z,79.97
2023-03-02T15:15:53.658Z,82.18
2023-03-02T15:18:21.353Z,78.18
2023-03-02T15:20:49.112Z,84.00
2023-03-02T15:23:16.732Z,83.25
2023-03-02T15:25:44.391Z,82.50
2023-03-02T15:28:12.088Z,72.20
2023-03-02T15:30:41.602Z,80.07
2023-03-02T15:33:10.596Z,75.95
2023-03-02T15:35:40.856Z,77.07
2023-03-02T15:38:08.528Z,83.30
2023-03-02T15:40:37.325Z,80.85
2023-03-02T15:43:05.065Z,75.22
2023-03-02T15:45:32.741Z,71.20
2023-03-02T15:48:00.499Z,71.70
2023-03-02T15:50:29.479Z,83.25
2023-03-02T15:52:57.424Z,92.18
2023-03-02T15:55:25.097Z,98.32
2023-03-02T15:57:53.580Z,90.10
2023-03-02T16:00:22.194Z,78.25
2023-03-02T16:02:50.179Z,79.07
2023-03-02T16:05:18.229Z,72.65
2023-03-02T16:07:47.327Z,78.38
2023-03-02T16:10:16.439Z,73.97
2023-03-02T16:12:44.165Z,90.55
2023-03-02T16:15:12.139Z,84.57
2023-03-02T16:17:39.839Z,89.85
2023-03-02T16:20:08.232Z,93.38
2023-03-02T16:22:35.891Z,106.60
2023-03-02T16:25:05.395Z,102.97
2023-03-02T16:27:33.104Z,114.50
2023-03-02T16:30:00.732Z,100.43
2023-03-02T16:32:30.017Z,108.75
2023-03-02T16:34:57.782Z,113.07
2023-03-02T16:37:25.654Z,108.72
2023-03-02T16:39:53.373Z,114.43
2023-03-02T16:42:22.466Z,116.00
2023-03-02T16:44:50.797Z,115.90
2023-03-02T16:47:18.562Z,113.93
2023-03-02T16:49:46.240Z,110.68
2023-03-02T16:52:13.899Z,129.55
2023-03-02T16:54:41.547Z,115.35
2023-03-02T16:57:09.485Z,120.15
2023-03-02T16:59:38.476Z,121.70
2023-03-02T17:02:06.152Z,121.00
2023-03-02T17:04:37.046Z,112.60
2023-03-02T17:07:04.862Z,113.32
2023-03-02T17:09:34.806Z,125.10
2023-03-02T17:12:02.503Z,116.57
2023-03-02T17:14:30.355Z,136.10
2023-03-02T17:16:59.541Z,140.75
2023-03-02T17:19:29.417Z,132.23
2023-03-02T17:21:57.929Z,121.93
2023-03-02T17:24:25.784Z,117.80
2023-03-02T17:26:53.557Z,124.47
2023-03-02T17:29:21.801Z,121.03
2023-03-02T17:31:49.669Z,120.55
2023-03-02T17:34:19.085Z,123.82
2023-03-02T17:36:46.996Z,119.28
2023-03-02T17:39:14.829Z,123.10
2023-03-02T17:41:42.602Z,110.63
2023-03-02T17:44:10.473Z,130.70
2023-03-02T17:46:38.222Z,134.68
2023-03-02T17:49:05.962Z,123.35
2023-03-02T17:51:35.178Z,124.93
2023-03-02T17:54:02.975Z,142.07
2023-03-02T17:56:30.812Z,125.10
2023-03-02T17:59:00.920Z,128.55
2023-03-02T18:01:30.204Z,126.95
2023-03-02T18:03:58.246Z,140.02
2023-03-02T18:06:26.379Z,110.95
2023-03-02T18:08:55.642Z,105.22
2023-03-02T18:11:25.587Z,107.88
2023-03-02T18:13:54.814Z,119.45
2023-03-02T18:16:23.548Z,110.13
2023-03-02T18:18:53.819Z,113.15
2023-03-02T18:21:22.354Z,113.93
2023-03-02T18:23:50.496Z,123.70
2023-03-02T18:26:19.862Z,111.05
2023-03-02T18:28:47.681Z,100.80
2023-03-02T18:31:17.927Z,109.30
2023-03-02T18:33:46.835Z,87.35
2023-03-02T18:36:14.754Z,87.35
2023-03-02T18:38:43.244Z,90.18
2023-03-02T18:41:12.983Z,84.13
2023-03-02T18:43:43.236Z,80.03
2023-03-02T18:46:20.398Z,87.75
2023-03-02T18:48:49.450Z,79.20
2023-03-02T18:51:17.846Z,83.35
2023-03-02T18:53:46.260Z,80.60
2023-03-02T18:56:14.116Z,77.28
2023-03-02T18:58:43.263Z,72.68
2023-03-02T19:01:11.835Z,67.70
2023-03-02T19:03:41.739Z,67.82
2023-03-02T19:06:09.481Z,73.32
2023-03-02T19:08:37.326Z,73.65
2023-03-02T19:11:06.105Z,68.00
2023-03-02T19:13:34.015Z,63.85
2023-03-02T19:16:03.233Z,67.68
2023-03-02T19:18:35.201Z,66.63
2023-03-02T19:21:04.894Z,64.72
2023-03-02T19:23:33.323Z,68.60
2023-03-02T19:26:01.413Z,64.43
2023-03-02T19:28:29.078Z,66.45
2023-03-02T19:30:57.112Z,71.18
2023-03-02T19:33:26.939Z,66.57
2023-03-02T19:35:54.658Z,58.78
2023-03-02T19:38:23.866Z,56.72
2023-03-02T19:40:51.494Z,63.97
2023-03-02T19:43:20.333Z,58.35
2023-03-02T19:45:48.121Z,59.47
2023-03-02T19:48:15.869Z,63.65
2023-03-02T19:50:45.415Z,57.55
2023-03-02T19:53:15.820Z,60.73
2023-03-02T19:58:17.102Z,38.75
2023-03-02T20:00:46.352Z,36.78
2023-03-02T20:03:15.119Z,40.40
2023-03-02T20:05:44.136Z,35.33
2023-03-02T20:08:11.934Z,37.05
2023-03-02T20:10:43.194Z,37.15
2023-03-02T20:13:11.595Z,39.45
2023-03-02T20:15:41.364Z,37.60
2023-03-02T20:18:10.660Z,34.33
2023-03-02T20:20:38.317Z,35.83
2023-03-02T20:23:07.523Z,34.85
2023-03-02T20:25:36.371Z,35.45
2023-03-02T20:28:05.797Z,36.00
2023-03-02T20:30:37.475Z,34.78
2023-03-02T20:33:07.134Z,31.60
2023-03-02T20:35:40.722Z,24.65
2023-03-02T20:38:12.636Z,29.13
2023-03-02T20:40:40.462Z,29.38
2023-03-02T20:43:08.119Z,27.63
2023-03-02T20:45:35.805Z,23.80
2023-03-02T20:48:05.353Z,37.90
2023-03-02T20:50:34.948Z,33.03
2023-03-02T20:53:03.272Z,21.42
2023-03-02T20:55:32.414Z,21.50
2023-03-02T20:58:01.044Z,23.20
2023-03-02T21:00:31.699Z,19.02
2023-03-02T21:03:00.107Z,20.23
2023-03-02T21:05:28.918Z,27.35
2023-03-02T21:07:57.291Z,22.05
2023-03-02T21:10:28.420Z,21.02
2023-03-02T21:12:57.696Z,19.95
2023-03-02T21:15:27.124Z,16.77
2023-03-02T21:17:55.552Z,17.40
2023-03-02T21:20:24.042Z,23.25
2023-03-02T21:22:51.850Z,17.70
2023-03-02T21:25:19.931Z,17.77
2023-03-02T21:27:47.714Z,22.75
2023-03-02T21:30:19.902Z,16.83
2023-03-02T21:32:47.766Z,19.30
2023-03-02T21:35:17.630Z,16.45
2023-03-02T21:37:45.507Z,15.65
2023-03-02T21:40:17.952Z,16.88
2023-03-02T21:42:46.042Z,17.95
2023-03-02T21:45:13.800Z,17.25
2023-03-02T21:47:44.440Z,17.52
2023-03-02T21:50:15.014Z,15.57
2023-03-02T21:52:42.633Z,19.63
2023-03-02T21:55:11.297Z,19.58
2023-03-02T21:57:39.014Z,28.00
2023-03-02T22:00:09.930Z,21.33
2023-03-02T22:02:38.395Z,17.88
2023-03-02T22:05:08.019Z,21.25
2023-03-02T22:07:35.709Z,23.38
2023-03-02T22:10:03.436Z,19.80
2023-03-02T22:12:31.154Z,20.85
2023-03-02T22:15:03.900Z,19.30
2023-03-02T22:17:31.602Z,20.42
2023-03-02T22:19:59.323Z,20.58
2023-03-02T22:22:30.816Z,21.15
2023-03-02T22:24:58.586Z,20.88
2023-03-02T22:27:28.453Z,20.40
2023-03-02T22:29:59.141Z,15.18
2023-03-02T22:32:29.327Z,20.02
2023-03-02T22:34:58.837Z,21.92
2023-03-02T22:37:30.372Z,22.53
2023-03-02T22:40:02.256Z,22.38
2023-03-02T22:42:31.440Z,22.00
2023-03-02T22:45:09.938Z,21.45
2023-03-02T22:47:37.624Z,23.33
2023-03-02T22:50:21.677Z,22.95
2023-03-02T22:52:51.157Z,22.05
2023-03-02T22:55:34.889Z,23.30
2023-03-02T22:58:34.021Z,23.63
2023-03-02T23:01:02.709Z,20.38
2023-03-02T23:03:38.443Z,21.92
2023-03-02T23:06:20.595Z,24.23
2023-03-02T23:08:50.185Z,20.65
2023-03-02T23:11:20.092Z,21.07
2023-03-02T23:13:48.504Z,23.55
2023-03-02T23:16:19.502Z,23.40
2023-03-02T23:18:48.835Z,22.98
2023-03-02T23:21:22.129Z,23.42
2023-03-02T23:23:51.581Z,21.98
2023-03-02T23:26:20.521Z,22.92
2023-03-02T23:28:50.522Z,22.83
2023-03-02T23:31:19.325Z,24.90
2023-03-02T23:33:47.086Z,23.10
2023-03-02T23:36:15.544Z,22.38
2023-03-02T23:38:43.333Z,22.80
2023-03-02T23:41:12.368Z,23.67
2023-03-02T23:43:40.037Z,22.90
2023-03-02T23:46:07.800Z,23.80
2023-03-02T23:48:35.631Z,26.50
2023-03-02T23:51:03.357Z,25.10
2023-03-02T23:53:31.035Z,24.73
2023-03-02T23:55:58.689Z,24.80
2023-03-02T23:58:27.777Z,23.35
